Bellaire, Kansas
Current Conditions -  °F | °C
As of 5:55 PM on Friday 28 Nov 2014 (Local Time) from KCNK Reporting Station
Clear Clear  
Wind Chill: 59°   Ceiling: Unl
Heat Index: 59°   Visibility: 10mi
Dew Point: 34°   Wind: 13mph
Humidity: 39%   Direction: 200°SSW
Pressure: 29.71"   Gusts: 22mph
Location:  39.8283°N, 98.5606°W
Report Text: KCNK 282355Z AUTO 20011G19KT 10SM CLR 15/01 A2971 RMK AO2 SLP062 T01500011 10189 20122 58001
Loading
Personal Weather Stations






























Interactive Weather Map New forecast layout! Learn more

10-Day Weather Forecast

Advertisements
Track Severe Weather on mobile